Risinger Woods, Louisiana
Current Conditions -  °F | °C
As of 7:53 PM on Friday 21 Nov 2014 (Local Time) from KDTN Reporting Station
Overcast Overcast  
Wind Chill: 59°   Ceiling: 5500
Heat Index: 59°   Visibility: 10mi
Dew Point: 49°   Wind: 12mph
Humidity: 69%   Direction: 130°SE
Pressure: 30.2"   Gusts: NA
Location:  32.5955°N, 93.8642°W
Report Text: KDTN 220153Z 13010KT 10SM BKN055 OVC070 15/09 A3020 RMK AO2 RAB18E26 SLP226 P0000 T01500094
Loading
Personal Weather Stations






























Interactive Weather Map New forecast layout! Learn more

10-Day Weather Forecast

Advertisements
Track Severe Weather on mobile